Time;durP1;ratioP1;P1;durP2;ratioP2;P2;SDS_P1;SDS_P2;PMS_P1;PMS_P2;Temp;Humidity;BMP_temperature;BMP_pressure;BME280_temperature;BME280_humidity;BME280_pressure;Samples;Min_cycle;Max_cycle;Signal;HPM_P1;HPM_P2
2022/10/17 00:00:31;;;;;;;25.73;17.37;;;10.30;99.90;11.50;97902.00;;;;5071678;28;20203;-74
2022/10/17 00:03:20;;;;;;;26.90;15.90;;;10.30;99.90;11.50;97901.00;;;;5078666;28;20203;-75
2022/10/17 00:06:13;;;;;;;26.90;16.87;;;10.30;99.90;11.40;97896.00;;;;5068536;28;20255;-75
2022/10/17 00:09:02;;;;;;;32.33;17.03;;;10.30;99.90;11.50;97906.00;;;;5069614;28;20199;-75
2022/10/17 00:11:51;;;;;;;22.30;16.07;;;10.30;99.90;11.50;97898.00;;;;5067979;28;20225;-75
2022/10/17 00:14:41;;;;;;;26.50;17.87;;;10.30;99.90;11.40;97901.00;;;;5068197;28;20690;-75
2022/10/17 00:17:30;;;;;;;23.23;16.33;;;10.30;99.90;11.50;97910.00;;;;5067733;28;20227;-75
2022/10/17 00:20:19;;;;;;;23.40;15.10;;;10.30;99.90;11.10;97895.00;;;;5074976;28;20215;-75
2022/10/17 00:23:07;;;;;;;21.33;14.67;;;10.20;99.90;10.90;97894.00;;;;5069009;28;20208;-75
2022/10/17 00:26:00;;;;;;;26.23;16.77;;;10.10;99.90;10.70;97897.00;;;;5077157;28;20635;-74
2022/10/17 00:28:51;;;;;;;24.17;14.87;;;10.00;99.90;10.80;97900.00;;;;5073685;28;20195;-74
2022/10/17 00:31:41;;;;;;;25.90;15.57;;;9.90;99.90;11.00;97900.00;;;;5085747;28;20230;-74
2022/10/17 00:34:30;;;;;;;24.23;16.77;;;9.90;99.90;11.30;97905.00;;;;5081957;28;20226;-74
2022/10/17 00:37:19;;;;;;;25.10;15.73;;;9.90;99.90;11.30;97901.00;;;;5069509;28;20740;-74
2022/10/17 00:40:10;;;;;;;25.80;17.73;;;10.00;99.90;11.40;97900.00;;;;5084696;28;20203;-74
2022/10/17 00:42:59;;;;;;;23.47;15.20;;;10.00;99.90;11.40;97892.00;;;;5088939;28;20248;-74
2022/10/17 00:45:47;;;;;;;22.73;15.80;;;10.10;99.90;11.40;97896.00;;;;5093263;28;20218;-74
2022/10/17 00:48:37;;;;;;;24.30;15.30;;;10.10;99.90;11.10;97896.00;;;;5092391;28;20627;-74
2022/10/17 00:51:32;;;;;;;20.93;15.73;;;10.10;99.90;10.80;97894.00;;;;5093454;28;20231;-74
2022/10/17 00:54:25;;;;;;;21.90;14.90;;;10.00;99.90;10.60;97898.00;;;;5094409;27;20203;-74
2022/10/17 00:57:15;;;;;;;29.93;16.20;;;9.90;99.90;10.70;97901.00;;;;5093110;28;20268;-75
2022/10/17 01:00:09;;;;;;;25.03;16.10;;;9.90;99.90;10.80;97898.00;;;;5086530;28;20283;-75
2022/10/17 01:02:57;;;;;;;26.70;17.47;;;9.90;99.90;11.00;97884.00;;;;5077987;28;20258;-75
2022/10/17 01:05:47;;;;;;;26.13;17.23;;;9.90;99.90;10.90;97888.00;;;;5089924;28;20306;-73
2022/10/17 01:08:37;;;;;;;30.70;17.00;;;9.90;99.90;11.10;97898.00;;;;5087686;27;20757;-74
2022/10/17 01:11:37;;;;;;;23.70;15.87;;;9.90;99.90;10.90;97888.00;;;;5079231;28;20276;-73
2022/10/17 01:14:35;;;;;;;25.33;17.10;;;10.00;99.90;10.80;97891.00;;;;5071254;28;20244;-73
2022/10/17 01:17:31;;;;;;;29.47;18.13;;;9.90;99.90;10.70;97879.00;;;;5083594;28;20220;-73
2022/10/17 01:21:02;;;;;;;29.50;16.33;;;9.90;99.90;10.80;97886.00;;;;5076460;28;20199;-73
2022/10/17 01:24:37;;;;;;;23.83;16.27;;;9.80;99.90;10.90;97880.00;;;;5075897;28;20614;-73
2022/10/17 01:27:56;;;;;;;31.07;16.97;;;9.80;99.90;11.00;97876.00;;;;5090266;28;20316;-73
2022/10/17 01:31:03;;;;;;;25.60;17.90;;;9.90;99.90;10.60;97879.00;;;;5089800;28;20225;-73
2022/10/17 01:34:03;;;;;;;22.63;15.13;;;9.80;99.90;10.40;97876.00;;;;5073407;28;20198;-74
2022/10/17 01:36:59;;;;;;;24.77;14.93;;;9.70;99.90;10.10;97873.00;;;;5072158;28;20259;-74
2022/10/17 01:39:54;;;;;;;25.00;16.13;;;9.60;99.90;10.10;97877.00;;;;5076283;28;20240;-75
2022/10/17 01:42:53;;;;;;;24.33;16.80;;;9.50;99.90;10.20;97873.00;;;;5082407;28;20681;-74
2022/10/17 01:45:49;;;;;;;23.10;15.70;;;9.40;99.90;10.50;97872.00;;;;5087806;28;20300;-74
2022/10/17 01:48:43;;;;;;;29.60;16.00;;;9.40;99.90;10.40;97876.00;;;;5090183;28;20728;-75
2022/10/17 01:51:38;;;;;;;30.67;16.93;;;9.50;99.90;10.30;97876.00;;;;5072101;28;20741;-75
2022/10/17 01:54:33;;;;;;;30.43;18.10;;;9.50;99.90;10.50;97876.00;;;;5079576;28;20208;-74
2022/10/17 01:57:32;;;;;;;28.03;16.97;;;9.50;99.90;10.40;97881.00;;;;5091607;28;20207;-74
2022/10/17 02:00:25;;;;;;;26.87;16.57;;;9.50;99.90;10.20;97882.00;;;;5089799;28;20238;-76
2022/10/17 02:03:18;;;;;;;24.17;16.23;;;9.50;99.90;10.30;97886.00;;;;5090216;28;20207;-73
2022/10/17 02:06:08;;;;;;;26.50;17.13;;;9.50;99.90;10.40;97879.00;;;;5091425;28;20226;-75
2022/10/17 02:08:56;;;;;;;31.80;17.17;;;9.50;99.90;10.50;97877.00;;;;5087638;28;20242;-75
2022/10/17 02:11:55;;;;;;;27.83;18.43;;;9.60;99.90;10.60;97886.00;;;;5071478;28;20381;-74
2022/10/17 02:15:08;;;;;;;27.67;18.17;;;9.60;99.90;10.70;97872.00;;;;5080097;28;20252;-74
2022/10/17 02:18:14;;;;;;;28.90;17.87;;;9.70;99.90;10.60;97885.00;;;;5089170;28;20238;-72
2022/10/17 02:21:10;;;;;;;30.20;16.67;;;9.70;99.90;10.50;97879.00;;;;5085795;28;20208;-73
2022/10/17 02:24:08;;;;;;;28.57;16.67;;;9.70;99.90;10.50;97874.00;;;;5071435;28;20266;-73
2022/10/17 02:27:05;;;;;;;25.60;16.30;;;9.70;99.90;10.60;97883.00;;;;5074022;28;20261;-71
2022/10/17 02:30:03;;;;;;;25.77;18.00;;;9.70;99.90;10.70;97874.00;;;;5077106;28;20203;-72
2022/10/17 02:32:58;;;;;;;28.70;17.07;;;9.80;99.90;11.10;97885.00;;;;5077022;28;20305;-73
2022/10/17 02:35:51;;;;;;;31.40;18.40;;;9.90;99.90;11.20;97879.00;;;;5083291;28;20240;-73
2022/10/17 02:38:43;;;;;;;32.93;18.23;;;10.00;99.90;11.20;97884.00;;;;5086211;28;20195;-72
2022/10/17 02:41:33;;;;;;;25.70;18.07;;;10.00;99.90;10.80;97875.00;;;;5082905;28;20301;-75
2022/10/17 02:44:23;;;;;;;30.00;16.73;;;10.00;99.90;10.90;97875.00;;;;5069999;28;20200;-73
2022/10/17 02:47:18;;;;;;;29.17;19.00;;;10.00;99.90;10.60;97884.00;;;;5087150;28;20246;-75
2022/10/17 02:50:08;;;;;;;24.83;15.43;;;9.90;99.90;10.80;97887.00;;;;5080751;28;20199;-74
2022/10/17 02:53:04;;;;;;;21.30;15.10;;;9.90;99.90;10.80;97886.00;;;;5090225;28;20674;-76
2022/10/17 02:55:59;;;;;;;27.73;16.67;;;9.90;99.90;10.70;97890.00;;;;5088297;27;20734;-75
2022/10/17 02:58:54;;;;;;;24.83;16.27;;;9.90;99.90;10.50;97880.00;;;;5078223;28;20289;-75
2022/10/17 03:01:44;;;;;;;30.83;16.33;;;9.80;99.90;10.80;97895.00;;;;5069161;28;20208;-76
2022/10/17 03:04:33;;;;;;;27.97;16.60;;;9.80;99.90;11.00;97892.00;;;;5077538;28;20203;-72
2022/10/17 03:07:22;;;;;;;22.03;15.20;;;9.80;99.90;11.20;97889.00;;;;5081121;28;20259;-73
2022/10/17 03:10:11;;;;;;;29.43;16.30;;;9.90;99.90;11.20;97890.00;;;;5076682;28;20212;-72
2022/10/17 03:13:01;;;;;;;28.73;17.07;;;9.90;99.90;11.30;97896.00;;;;5071125;28;20263;-73
2022/10/17 03:15:49;;;;;;;25.97;16.50;;;10.00;99.90;11.10;97892.00;;;;5074875;28;20276;-73
2022/10/17 03:18:38;;;;;;;26.60;17.33;;;10.00;99.90;10.90;97902.00;;;;5073039;28;20227;-72
2022/10/17 03:21:27;;;;;;;28.50;17.60;;;10.00;99.90;10.60;97897.00;;;;5078615;28;20208;-70
2022/10/17 03:24:15;;;;;;;23.40;15.50;;;10.00;99.90;10.70;97905.00;;;;5074947;28;20208;-72
2022/10/17 03:27:04;;;;;;;25.27;15.67;;;9.90;99.90;10.80;97904.00;;;;5076161;28;20227;-75
2022/10/17 03:29:54;;;;;;;26.80;16.53;;;9.90;99.90;10.50;97905.00;;;;5070652;28;20237;-71
2022/10/17 03:32:43;;;;;;;23.10;15.73;;;9.80;99.90;10.50;97905.00;;;;5069644;28;20691;-69
2022/10/17 03:35:32;;;;;;;18.67;13.60;;;9.80;99.90;10.50;97914.00;;;;5071660;28;20216;-73
2022/10/17 03:38:20;;;;;;;22.37;16.33;;;9.80;99.90;10.30;97916.00;;;;5068899;28;20750;-72
2022/10/17 03:41:10;;;;;;;22.87;16.87;;;9.70;99.90;10.40;97917.00;;;;5084065;27;20240;-72
2022/10/17 03:43:58;;;;;;;25.83;16.60;;;9.60;99.90;10.50;97911.00;;;;5084789;28;20273;-71
2022/10/17 03:46:48;;;;;;;22.93;14.97;;;9.60;99.90;10.80;97923.00;;;;5072467;28;20223;-73
2022/10/17 03:49:37;;;;;;;22.47;15.13;;;9.60;99.90;11.00;97918.00;;;;5079120;28;20199;-76
2022/10/17 03:52:26;;;;;;;28.87;16.63;;;9.70;99.90;10.80;97913.00;;;;5072448;28;20320;-74
2022/10/17 03:55:15;;;;;;;24.60;16.53;;;9.70;99.90;10.90;97918.00;;;;5069683;28;20253;-73
2022/10/17 03:58:03;;;;;;;32.30;16.73;;;9.80;99.90;10.80;97915.00;;;;5068738;28;20227;-73
2022/10/17 04:00:52;;;;;;;25.27;15.43;;;9.80;99.90;10.20;97921.00;;;;5076740;28;20200;-69
2022/10/17 04:03:43;;;;;;;24.43;16.93;;;9.70;99.90;10.10;97921.00;;;;5082812;28;20256;-73
2022/10/17 04:06:32;;;;;;;26.13;15.90;;;9.60;99.90;10.20;97922.00;;;;5078843;28;20256;-73
2022/10/17 04:09:20;;;;;;;30.50;17.23;;;9.50;99.90;10.30;97917.00;;;;5067842;28;20623;-70
2022/10/17 04:12:09;;;;;;;27.00;17.07;;;9.50;99.90;10.30;97935.00;;;;5076438;28;20354;-71
2022/10/17 04:14:58;;;;;;;24.83;14.77;;;9.50;99.90;10.40;97923.00;;;;5079088;28;20304;-72
2022/10/17 04:17:47;;;;;;;23.63;16.60;;;9.40;99.90;10.40;97922.00;;;;5085069;28;20735;-71
2022/10/17 04:20:37;;;;;;;25.37;14.37;;;9.50;99.90;10.70;97925.00;;;;5069870;28;20208;-72
2022/10/17 04:23:26;;;;;;;27.20;16.70;;;9.50;99.90;10.50;97923.00;;;;5078433;28;20252;-71
2022/10/17 04:26:14;;;;;;;22.73;16.67;;;9.50;99.90;10.40;97932.00;;;;5080864;28;20216;-74
2022/10/17 04:29:04;;;;;;;27.17;16.63;;;9.60;99.90;10.20;97925.00;;;;5085196;28;20591;-72
2022/10/17 04:31:54;;;;;;;25.90;17.23;;;9.50;99.90;10.10;97936.00;;;;5080026;28;20199;-73
2022/10/17 04:34:43;;;;;;;31.93;17.83;;;9.40;99.90;9.90;97937.00;;;;5083471;28;20360;-73
2022/10/17 04:37:33;;;;;;;22.37;13.60;;;9.30;99.90;9.80;97933.00;;;;5078892;28;20239;-75
2022/10/17 04:40:22;;;;;;;26.67;16.17;;;9.20;99.90;9.90;97933.00;;;;5077112;28;20598;-71
2022/10/17 04:43:11;;;;;;;23.00;14.63;;;9.10;99.90;9.80;97929.00;;;;5086890;28;20244;-70
2022/10/17 04:46:01;;;;;;;21.33;15.10;;;9.10;99.90;9.80;97942.00;;;;5070863;28;20300;-70
2022/10/17 04:48:49;;;;;;;23.30;16.10;;;9.00;99.90;10.10;97940.00;;;;5068447;28;20725;-70
2022/10/17 04:51:39;;;;;;;28.30;16.03;;;9.10;99.90;10.00;97938.00;;;;5068312;28;20210;-71
2022/10/17 04:54:29;;;;;;;26.27;17.23;;;9.20;99.90;10.10;97941.00;;;;5069755;28;20200;-70
2022/10/17 04:57:18;;;;;;;24.87;15.43;;;9.10;99.90;9.80;97940.00;;;;5082040;28;20223;-73
2022/10/17 05:00:09;;;;;;;20.90;13.77;;;9.00;99.90;9.60;97942.00;;;;5078937;28;20230;-70
2022/10/17 05:02:58;;;;;;;22.47;13.83;;;9.00;99.90;9.50;97946.00;;;;5077581;28;20248;-75
2022/10/17 05:05:46;;;;;;;28.10;15.30;;;8.90;99.90;9.80;97940.00;;;;5083560;28;20215;-72
2022/10/17 05:08:36;;;;;;;20.33;15.27;;;8.90;99.90;10.00;97951.00;;;;5079311;28;20203;-72
2022/10/17 05:11:28;;;;;;;21.67;14.63;;;9.00;99.90;10.00;97941.00;;;;5077829;28;20215;-71
2022/10/17 05:14:17;;;;;;;20.20;13.93;;;9.00;99.90;10.20;97952.00;;;;5085966;28;20549;-72
2022/10/17 05:17:06;;;;;;;20.73;13.27;;;9.10;99.90;10.30;97956.00;;;;5079520;28;20277;-72
2022/10/17 05:19:55;;;;;;;20.20;13.90;;;9.10;99.90;10.40;97960.00;;;;5068990;28;20204;-72
2022/10/17 05:22:43;;;;;;;22.40;14.87;;;9.20;99.90;10.30;97961.00;;;;5068755;28;20220;-71
2022/10/17 05:25:32;;;;;;;22.67;15.50;;;9.20;99.90;10.00;97956.00;;;;5078690;28;20703;-72
2022/10/17 05:28:22;;;;;;;22.67;14.60;;;9.10;99.90;10.10;97966.00;;;;5080185;28;20744;-72
2022/10/17 05:31:11;;;;;;;23.30;15.70;;;9.10;99.90;10.10;97961.00;;;;5079968;28;20682;-72
2022/10/17 05:34:01;;;;;;;26.30;15.07;;;9.10;99.90;9.80;97957.00;;;;5083820;28;20701;-73
2022/10/17 05:36:50;;;;;;;20.70;12.50;;;9.00;99.90;10.10;97960.00;;;;5080949;28;20227;-71
2022/10/17 05:39:39;;;;;;;23.83;13.97;;;9.10;99.90;10.30;97970.00;;;;5076968;28;20203;-71
2022/10/17 05:42:27;;;;;;;21.50;13.87;;;9.20;99.90;10.10;97969.00;;;;5080291;28;20195;-71
2022/10/17 05:45:18;;;;;;;21.20;13.10;;;9.10;99.90;10.20;97975.00;;;;5087705;28;20218;-74
2022/10/17 05:48:07;;;;;;;18.83;14.03;;;9.20;99.90;9.90;97971.00;;;;5081750;28;20249;-72
2022/10/17 05:50:59;;;;;;;22.73;14.47;;;9.10;99.90;9.50;97966.00;;;;5086433;28;20239;-72
2022/10/17 05:53:48;;;;;;;22.33;13.67;;;9.00;99.90;9.40;97980.00;;;;5083161;28;20230;-72
2022/10/17 05:56:37;;;;;;;19.10;13.67;;;8.80;99.90;9.90;97986.00;;;;5080860;28;20211;-71
2022/10/17 05:59:26;;;;;;;20.60;13.17;;;8.80;99.90;10.00;97991.00;;;;5077914;28;20203;-71
2022/10/17 06:02:16;;;;;;;23.33;13.27;;;8.90;99.90;10.00;97985.00;;;;5080993;28;20257;-73
2022/10/17 06:05:06;;;;;;;16.00;10.33;;;9.00;99.90;10.00;97985.00;;;;5084263;28;20211;-75
2022/10/17 06:07:54;;;;;;;20.63;13.03;;;9.10;99.90;10.40;97995.00;;;;5091439;28;20215;-70
2022/10/17 06:10:43;;;;;;;20.20;14.27;;;9.30;99.90;10.70;98001.00;;;;5091514;27;20228;-69
2022/10/17 06:13:32;;;;;;;22.63;13.60;;;9.40;99.90;10.40;97991.00;;;;5085049;28;20214;-69
2022/10/17 06:16:20;;;;;;;23.17;12.77;;;9.40;99.90;10.30;97997.00;;;;5088198;28;20763;-71
2022/10/17 06:19:11;;;;;;;18.57;12.43;;;9.40;99.90;10.20;97999.00;;;;5080517;28;20207;-71
2022/10/17 06:22:00;;;;;;;16.63;13.50;;;9.30;99.90;9.80;98004.00;;;;5082942;28;20199;-75
2022/10/17 06:24:48;;;;;;;19.67;12.23;;;9.20;99.90;9.80;97999.00;;;;5086413;28;20677;-72
2022/10/17 06:27:37;;;;;;;15.53;11.87;;;9.10;99.90;9.80;97999.00;;;;5078863;28;20226;-71
2022/10/17 06:30:26;;;;;;;20.43;13.30;;;9.00;99.90;10.20;98010.00;;;;5085272;28;20192;-71
2022/10/17 06:33:15;;;;;;;20.03;13.77;;;9.10;99.90;10.30;98010.00;;;;5084808;28;20283;-71
2022/10/17 06:36:08;;;;;;;18.57;12.43;;;9.20;99.90;10.20;98014.00;;;;5091410;27;20219;-74
2022/10/17 06:38:56;;;;;;;18.40;12.70;;;9.20;99.90;10.40;98026.00;;;;5086663;28;20213;-72
2022/10/17 06:41:45;;;;;;;20.53;11.73;;;9.30;99.90;10.30;98026.00;;;;5083319;28;20203;-73
2022/10/17 06:44:34;;;;;;;17.17;12.43;;;9.40;99.90;10.40;98034.00;;;;5082797;28;20253;-73
2022/10/17 06:47:22;;;;;;;18.37;12.57;;;9.40;99.90;10.60;98030.00;;;;5082779;28;20275;-71
2022/10/17 06:50:11;;;;;;;18.07;12.43;;;9.50;99.90;10.60;98039.00;;;;5086653;28;20199;-70
2022/10/17 06:53:01;;;;;;;21.63;12.00;;;9.60;99.90;10.60;98036.00;;;;5079092;28;20242;-74
2022/10/17 06:55:52;;;;;;;19.20;11.87;;;9.70;99.90;10.90;98036.00;;;;5084978;28;20340;-73
2022/10/17 06:58:41;;;;;;;21.47;12.67;;;9.80;99.90;11.00;98028.00;;;;5087306;28;20261;-72
2022/10/17 07:01:33;;;;;;;15.97;12.03;;;9.90;99.90;11.30;98035.00;;;;5084113;28;20317;-73
2022/10/17 07:04:21;;;;;;;19.33;12.37;;;10.10;99.90;11.40;98039.00;;;;5085050;28;20211;-72
2022/10/17 07:07:10;;;;;;;16.20;11.30;;;10.20;99.90;11.50;98050.00;;;;5089030;28;20312;-74
2022/10/17 07:10:00;;;;;;;16.53;10.90;;;10.30;99.90;11.50;98040.00;;;;5090005;28;20206;-70
2022/10/17 07:12:49;;;;;;;19.57;12.00;;;10.40;99.90;11.50;98058.00;;;;5079204;28;20211;-71
2022/10/17 07:15:38;;;;;;;19.90;11.87;;;10.50;99.90;11.80;98057.00;;;;5081146;28;20219;-71
2022/10/17 07:18:27;;;;;;;19.93;11.60;;;10.60;99.90;12.10;98048.00;;;;5083611;28;20257;-71
2022/10/17 07:21:15;;;;;;;18.90;12.77;;;10.70;99.90;11.80;98057.00;;;;5079729;28;20214;-71
2022/10/17 07:24:06;;;;;;;18.57;11.37;;;10.80;99.90;12.20;98059.00;;;;5083167;28;20203;-71
2022/10/17 07:26:56;;;;;;;18.27;12.07;;;10.90;99.90;12.60;98074.00;;;;5090236;28;20278;-71
2022/10/17 07:29:44;;;;;;;17.73;11.13;;;11.10;99.90;12.80;98070.00;;;;5088793;28;20272;-71
2022/10/17 07:32:33;;;;;;;18.10;11.27;;;11.30;99.90;13.20;98063.00;;;;5089994;28;20230;-71
2022/10/17 07:35:22;;;;;;;16.57;11.43;;;11.50;99.90;13.40;98074.00;;;;5079178;28;20263;-72
2022/10/17 07:38:10;;;;;;;21.73;12.13;;;11.70;99.90;13.80;98068.00;;;;5081692;28;20783;-72
2022/10/17 07:41:02;;;;;;;15.87;10.43;;;12.00;99.90;14.20;98075.00;;;;5085614;28;20285;-71
2022/10/17 07:43:52;;;;;;;15.43;10.60;;;12.30;99.90;14.60;98073.00;;;;5083933;28;20258;-72
2022/10/17 07:46:40;;;;;;;11.77;9.73;;;12.60;99.90;14.80;98070.00;;;;5080099;28;20228;-72
2022/10/17 07:49:29;;;;;;;17.90;10.13;;;12.90;99.90;15.10;98066.00;;;;5080379;28;20341;-72
2022/10/17 07:52:19;;;;;;;15.40;8.83;;;13.10;99.90;15.30;98070.00;;;;5083191;28;20214;-71
2022/10/17 07:55:09;;;;;;;15.33;11.07;;;13.30;99.90;15.40;98081.00;;;;5080638;28;20269;-71
2022/10/17 07:57:59;;;;;;;15.47;9.57;;;13.50;99.90;15.60;98076.00;;;;5085913;28;20203;-72
2022/10/17 08:00:49;;;;;;;17.53;10.77;;;13.70;99.90;15.60;98077.00;;;;5072510;28;20223;-71
2022/10/17 08:03:38;;;;;;;11.80;8.77;;;13.90;99.90;15.60;98068.00;;;;5068575;28;20293;-71
2022/10/17 08:06:27;;;;;;;9.57;7.67;;;14.00;99.90;15.90;98081.00;;;;5068934;28;20220;-72
2022/10/17 08:09:16;;;;;;;11.63;8.43;;;14.10;99.90;15.80;98077.00;;;;5070350;28;20223;-73
2022/10/17 08:12:05;;;;;;;12.50;9.07;;;14.20;99.90;16.00;98076.00;;;;5084178;28;20245;-72
2022/10/17 08:14:54;;;;;;;9.87;7.70;;;14.30;99.90;16.10;98078.00;;;;5079905;28;20258;-71
2022/10/17 08:17:44;;;;;;;12.67;9.03;;;14.50;99.90;16.30;98081.00;;;;5077220;28;20631;-72
2022/10/17 08:20:33;;;;;;;11.87;8.23;;;14.60;99.90;16.60;98078.00;;;;5071004;28;20281;-72
2022/10/17 08:23:22;;;;;;;11.43;8.30;;;14.70;99.90;16.70;98078.00;;;;5081903;28;20777;-72
2022/10/17 08:26:12;;;;;;;14.10;9.40;;;14.90;99.90;16.70;98087.00;;;;5088963;28;20223;-71
2022/10/17 08:29:00;;;;;;;10.90;8.03;;;15.00;99.90;16.90;98083.00;;;;5078046;28;20200;-73
2022/10/17 08:31:49;;;;;;;13.10;8.77;;;15.10;99.90;17.20;98081.00;;;;5085984;28;20210;-74
2022/10/17 08:34:39;;;;;;;13.83;9.37;;;15.20;99.90;17.20;98091.00;;;;5081921;28;20219;-73
2022/10/17 08:37:29;;;;;;;13.03;8.27;;;15.40;99.90;17.30;98082.00;;;;5068797;28;20643;-75
2022/10/17 08:40:23;;;;;;;10.80;8.60;;;15.50;99.90;17.50;98091.00;;;;5071524;28;20215;-71
2022/10/17 08:43:28;;;;;;;13.47;8.27;;;15.60;99.90;17.50;98086.00;;;;5080942;28;20269;-73
2022/10/17 08:46:20;;;;;;;10.23;8.00;;;15.70;99.90;17.70;98095.00;;;;5074862;28;20709;-74
2022/10/17 08:49:19;;;;;;;13.80;8.43;;;15.90;99.90;17.70;98084.00;;;;5079960;28;20667;-73
2022/10/17 08:52:20;;;;;;;12.23;9.13;;;15.90;99.90;18.00;98089.00;;;;5068349;28;20200;-72
2022/10/17 08:55:17;;;;;;;12.63;9.37;;;16.10;99.90;18.10;98089.00;;;;5078320;28;20296;-73
2022/10/17 08:58:14;;;;;;;10.57;7.23;;;16.20;99.90;18.40;98086.00;;;;5080320;28;20891;-73
2022/10/17 09:01:13;;;;;;;13.33;9.73;;;16.40;99.90;18.60;98089.00;;;;5087106;28;20709;-73
2022/10/17 09:04:20;;;;;;;11.83;7.93;;;16.60;99.90;18.70;98088.00;;;;5092277;27;20210;-72
2022/10/17 09:07:18;;;;;;;11.93;8.33;;;16.70;99.90;18.80;98079.00;;;;5090546;28;20215;-73
2022/10/17 09:10:16;;;;;;;15.87;8.60;;;16.90;99.90;19.00;98076.00;;;;5084977;28;20214;-73
2022/10/17 09:13:17;;;;;;;10.40;7.77;;;17.00;99.90;19.00;98086.00;;;;5092428;28;20740;-72
2022/10/17 09:16:37;;;;;;;8.87;7.53;;;17.20;99.90;19.20;98080.00;;;;5079877;28;20305;-72
2022/10/17 09:19:31;;;;;;;10.77;9.00;;;17.30;99.90;19.60;98084.00;;;;5085054;28;20196;-72
2022/10/17 09:22:25;;;;;;;10.73;7.30;;;17.50;99.90;19.90;98074.00;;;;5083354;28;20679;-72
2022/10/17 09:25:17;;;;;;;9.57;7.73;;;17.70;99.90;20.10;98094.00;;;;5081955;28;20238;-72
2022/10/17 09:28:17;;;;;;;9.83;7.77;;;17.90;99.90;20.30;98084.00;;;;5085402;28;20200;-72
2022/10/17 09:31:17;;;;;;;10.63;7.97;;;18.10;99.90;20.40;98081.00;;;;5079901;28;20203;-72
2022/10/17 09:34:09;;;;;;;10.10;8.73;;;18.30;99.90;20.40;98081.00;;;;5089499;27;20244;-72
2022/10/17 09:37:00;;;;;;;9.73;7.63;;;18.50;99.90;20.60;98075.00;;;;5086673;28;20291;-71
2022/10/17 09:39:50;;;;;;;8.93;7.33;;;18.60;99.90;20.90;98088.00;;;;5073133;28;20207;-72
2022/10/17 09:42:40;;;;;;;14.83;7.50;;;18.70;99.90;21.00;98080.00;;;;5078585;28;20191;-72
2022/10/17 09:45:36;;;;;;;10.23;7.63;;;18.90;99.90;21.30;98072.00;;;;5089184;28;20281;-72
2022/10/17 09:48:29;;;;;;;10.17;6.80;;;19.10;99.90;21.50;98077.00;;;;5081481;28;20210;-72
2022/10/17 09:51:18;;;;;;;8.43;7.20;;;19.30;99.90;21.80;98076.00;;;;5073197;28;20741;-73
2022/10/17 09:54:20;;;;;;;12.70;8.43;;;19.50;99.90;22.00;98076.00;;;;5072525;28;20200;-72
2022/10/17 09:57:13;;;;;;;9.43;8.17;;;19.70;99.90;22.40;98073.00;;;;5083793;28;20265;-72
2022/10/17 10:00:06;;;;;;;11.43;7.90;;;19.90;99.90;22.70;98072.00;;;;5091548;27;20678;-72
2022/10/17 10:03:14;;;;;;;10.53;8.20;;;20.20;99.90;22.90;98072.00;;;;5082807;27;20203;-72
2022/10/17 10:06:07;;;;;;;14.27;8.60;;;20.50;99.90;22.80;98071.00;;;;5088881;27;20215;-73
2022/10/17 10:08:58;;;;;;;14.30;11.47;;;20.60;99.90;23.20;98070.00;;;;5080861;28;20196;-72
2022/10/17 10:11:49;;;;;;;16.67;9.80;;;20.80;99.90;23.30;98073.00;;;;5084659;28;20210;-73
2022/10/17 10:14:39;;;;;;;11.20;9.27;;;21.00;99.90;23.40;98063.00;;;;5088229;28;20586;-73
2022/10/17 10:17:41;;;;;;;14.60;10.60;;;21.20;99.90;23.90;98070.00;;;;5090951;28;20716;-73
2022/10/17 10:20:35;;;;;;;14.33;10.40;;;21.30;99.90;24.20;98073.00;;;;5082794;28;20195;-72
2022/10/17 10:23:23;;;;;;;14.03;10.20;;;21.60;99.90;24.40;98078.00;;;;5090852;28;20234;-72
2022/10/17 10:26:22;;;;;;;14.70;9.90;;;21.90;99.90;25.10;98072.00;;;;5089716;28;20288;-72
2022/10/17 10:29:24;;;;;;;15.47;11.33;;;22.30;99.90;24.80;98067.00;;;;5083606;28;20582;-72
2022/10/17 10:32:21;;;;;;;16.60;10.73;;;22.60;99.90;25.30;98064.00;;;;5084724;28;20227;-72
2022/10/17 10:35:21;;;;;;;16.37;12.03;;;22.90;99.90;25.50;98064.00;;;;5086306;28;20264;-71
2022/10/17 10:38:16;;;;;;;13.73;10.43;;;23.30;99.90;26.10;98056.00;;;;5083399;28;20200;-72
2022/10/17 10:41:07;;;;;;;13.13;10.77;;;23.70;99.90;26.10;98062.00;;;;5082082;28;20216;-72
2022/10/17 10:43:57;;;;;;;15.33;11.30;;;24.00;99.90;25.20;98057.00;;;;5077232;28;20289;-72
2022/10/17 10:46:46;;;;;;;14.53;11.97;;;24.20;99.90;25.80;98068.00;;;;5081108;28;20255;-73
2022/10/17 10:49:43;;;;;;;18.60;13.20;;;24.30;99.90;26.50;98059.00;;;;5091843;28;20214;-72
2022/10/17 10:52:40;;;;;;;18.37;12.40;;;24.40;99.90;26.80;98053.00;;;;5089951;28;20204;-72
2022/10/17 10:55:35;;;;;;;14.07;12.53;;;24.60;99.90;27.10;98062.00;;;;5077921;28;20238;-72
2022/10/17 10:58:41;;;;;;;17.17;12.93;;;24.90;99.90;27.10;98063.00;;;;5085710;28;20740;-72
2022/10/17 11:01:37;;;;;;;16.97;13.67;;;25.10;99.90;27.20;98054.00;;;;5077499;28;20697;-73
2022/10/17 11:04:32;;;;;;;16.40;13.43;;;25.20;99.90;26.90;98055.00;;;;5088215;28;20619;-73
2022/10/17 11:07:28;;;;;;;19.50;14.43;;;25.40;99.90;25.90;98045.00;;;;5071697;28;20775;-70
2022/10/17 11:10:21;;;;;;;24.57;14.37;;;25.10;99.90;26.80;98054.00;;;;5083301;28;20203;-70
2022/10/17 11:13:19;;;;;;;18.93;13.63;;;25.10;99.90;26.80;98050.00;;;;5090493;28;20245;-71
2022/10/17 11:16:23;;;;;;;16.93;13.47;;;25.00;99.90;27.50;98052.00;;;;5083844;28;20238;-71
2022/10/17 11:19:21;;;;;;;18.43;13.80;;;25.20;99.90;27.40;98053.00;;;;5078429;28;20197;-71
2022/10/17 11:22:16;;;;;;;16.77;13.60;;;25.40;99.90;27.90;98065.00;;;;5079995;28;20247;-70
2022/10/17 11:25:22;;;;;;;20.63;13.37;;;25.60;99.90;27.90;98055.00;;;;5089157;28;20203;-70
2022/10/17 11:28:15;;;;;;;20.57;14.30;;;25.80;99.10;28.00;98057.00;;;;5087663;27;20193;-70
2022/10/17 11:31:08;;;;;;;15.50;13.33;;;25.90;97.70;27.40;98049.00;;;;5084642;28;20582;-72
2022/10/17 11:34:01;;;;;;;15.83;13.27;;;25.90;96.60;27.70;98060.00;;;;5083975;28;20287;-71
2022/10/17 11:36:53;;;;;;;17.90;13.07;;;25.90;96.80;26.50;98066.00;;;;5083922;28;20232;-72
2022/10/17 11:39:48;;;;;;;17.07;13.47;;;25.60;95.10;27.50;98054.00;;;;5074823;28;20202;-72
2022/10/17 11:42:49;;;;;;;16.43;13.80;;;25.50;96.30;27.60;98047.00;;;;5088721;28;20196;-72
2022/10/17 11:45:44;;;;;;;15.80;12.80;;;25.70;95.90;27.90;98046.00;;;;5082463;28;20230;-72
2022/10/17 11:48:41;;;;;;;14.80;12.63;;;25.80;95.00;28.30;98045.00;;;;5084263;28;20204;-71
2022/10/17 11:51:32;;;;;;;13.63;11.10;;;26.00;95.00;28.50;98048.00;;;;5086523;28;20206;-71
2022/10/17 11:54:48;;;;;;;14.30;11.52;;;26.20;93.80;29.30;98044.00;;;;5086068;28;20210;-72
2022/10/17 11:57:55;;;;;;;14.63;12.60;;;26.60;93.90;29.40;98040.00;;;;5091514;28;20231;-73
2022/10/17 12:00:54;;;;;;;15.23;11.57;;;26.80;93.40;29.40;98047.00;;;;5091975;28;20210;-73
2022/10/17 12:03:57;;;;;;;14.40;10.55;;;27.10;92.30;30.30;98039.00;;;;5074307;28;20194;-73
2022/10/17 12:07:02;;;;;;;13.90;11.90;;;27.40;92.30;30.20;98038.00;;;;5081639;28;20224;-73
2022/10/17 12:09:59;;;;;;;13.85;11.55;;;27.80;90.30;29.90;98039.00;;;;5091672;28;20201;-73
2022/10/17 12:12:49;;;;;;;13.02;11.73;;;28.00;88.70;29.20;98046.00;;;;5079409;28;20260;-72
2022/10/17 12:15:38;;;;;;;13.80;11.73;;;27.80;87.60;29.50;98047.00;;;;5085007;28;20783;-73
2022/10/17 12:18:29;;;;;;;15.65;12.00;;;27.80;86.60;29.40;98039.00;;;;5088370;28;20197;-74
2022/10/17 12:21:18;;;;;;;13.65;12.23;;;27.70;85.40;28.00;98031.00;;;;5087599;28;20213;-73
2022/10/17 12:24:29;;;;;;;15.00;11.82;;;27.60;84.80;28.10;98040.00;;;;5089272;28;20200;-76
2022/10/17 12:27:41;;;;;;;16.25;12.35;;;27.40;83.60;27.90;98041.00;;;;5075813;28;20267;-73
2022/10/17 12:30:31;;;;;;;16.35;13.25;;;27.00;86.40;26.80;98029.00;;;;5079880;28;20675;-75
2022/10/17 12:33:23;;;;;;;13.85;12.43;;;26.80;84.90;29.00;98035.00;;;;5086546;28;20372;-73
2022/10/17 12:36:45;;;;;;;14.25;11.27;;;26.70;88.60;28.30;98046.00;;;;5086912;28;20273;-73